createdAt,value
2023-01-15T00:02:18.797Z,10.30
2023-01-15T00:04:47.069Z,10.00
2023-01-15T00:07:16.834Z,10.10
2023-01-15T00:09:45.381Z,9.90
2023-01-15T00:12:13.810Z,9.90
2023-01-15T00:14:42.226Z,9.90
2023-01-15T00:17:10.661Z,9.80
2023-01-15T00:19:39.058Z,9.80
2023-01-15T00:22:07.764Z,9.40
2023-01-15T00:24:54.736Z,9.60
2023-01-15T00:27:41.748Z,9.80
2023-01-15T00:30:12.341Z,9.80
2023-01-15T00:32:41.414Z,9.80
2023-01-15T00:35:14.177Z,10.10
2023-01-15T00:37:45.487Z,9.70
2023-01-15T00:40:17.217Z,9.70
2023-01-15T00:42:47.130Z,9.50
2023-01-15T00:45:23.086Z,9.80
2023-01-15T00:47:51.780Z,9.60
2023-01-15T00:50:23.346Z,10.00
2023-01-15T00:52:51.949Z,9.80
2023-01-15T00:55:21.860Z,9.80
2023-01-15T00:57:52.523Z,9.70
2023-01-15T01:00:21.242Z,10.00
2023-01-15T01:02:49.869Z,10.00
2023-01-15T01:05:18.309Z,9.50
2023-01-15T01:07:46.685Z,9.70
2023-01-15T01:10:15.153Z,9.80
2023-01-15T01:12:45.133Z,9.60
2023-01-15T01:15:13.562Z,9.60
2023-01-15T01:17:41.985Z,9.90
2023-01-15T01:20:13.632Z,9.50
2023-01-15T01:22:42.506Z,9.70
2023-01-15T01:25:11.635Z,9.80
2023-01-15T01:27:39.996Z,9.80
2023-01-15T01:30:11.431Z,9.70
2023-01-15T01:32:40.120Z,9.90
2023-01-15T01:35:08.807Z,10.40
2023-01-15T01:37:37.164Z,9.90
2023-01-15T01:40:06.632Z,10.00
2023-01-15T01:42:35.252Z,10.00
2023-01-15T01:45:17.999Z,10.20
2023-01-15T01:47:47.201Z,9.90
2023-01-15T01:50:15.988Z,10.20
2023-01-15T01:52:49.484Z,10.00
2023-01-15T01:55:21.040Z,10.10
2023-01-15T01:57:51.545Z,10.30
2023-01-15T02:00:22.541Z,10.00
2023-01-15T02:02:52.345Z,9.70
2023-01-15T02:05:28.932Z,9.80
2023-01-15T02:07:57.692Z,9.80
2023-01-15T02:10:26.241Z,9.70
2023-01-15T02:13:02.150Z,9.30
2023-01-15T02:15:36.995Z,9.70
2023-01-15T02:18:13.860Z,9.60
2023-01-15T02:20:47.562Z,9.60
2023-01-15T02:23:49.020Z,9.70
2023-01-15T02:26:51.899Z,9.40
2023-01-15T02:29:27.107Z,9.20
2023-01-15T02:31:55.912Z,9.30
2023-01-15T02:34:27.759Z,9.20
2023-01-15T02:37:01.335Z,9.30
2023-01-15T02:39:31.598Z,9.50
2023-01-15T02:42:05.091Z,9.30
2023-01-15T02:44:36.999Z,9.80
2023-01-15T02:47:07.014Z,9.70
2023-01-15T02:49:36.816Z,9.50
2023-01-15T02:52:08.621Z,9.30
2023-01-15T02:54:43.112Z,9.70
2023-01-15T02:57:18.678Z,9.20
2023-01-15T02:59:49.586Z,9.70
2023-01-15T03:02:21.732Z,9.50
2023-01-15T03:04:57.122Z,9.60
2023-01-15T03:07:28.525Z,9.60
2023-01-15T03:09:58.024Z,9.60
2023-01-15T03:12:31.670Z,9.50
2023-01-15T03:15:08.108Z,9.30
2023-01-15T03:17:38.717Z,9.30
2023-01-15T03:20:14.618Z,9.50
2023-01-15T03:22:47.210Z,9.60
2023-01-15T03:25:20.251Z,9.80
2023-01-15T03:27:49.972Z,9.90
2023-01-15T03:30:20.462Z,10.00
2023-01-15T03:32:49.315Z,9.90
2023-01-15T03:35:46.862Z,9.70
2023-01-15T03:38:17.392Z,9.50
2023-01-15T03:40:53.727Z,9.60
2023-01-15T03:43:44.618Z,9.70
2023-01-15T03:46:25.287Z,9.40
2023-01-15T03:49:01.492Z,9.50
2023-01-15T03:51:37.962Z,9.50
2023-01-15T03:54:15.340Z,9.60
2023-01-15T03:56:55.685Z,9.70
2023-01-15T03:59:30.826Z,9.50
2023-01-15T04:02:07.602Z,9.40
2023-01-15T04:04:58.436Z,9.30
2023-01-15T04:07:35.691Z,9.30
2023-01-15T04:10:04.755Z,9.20
2023-01-15T04:12:34.175Z,9.30
2023-01-15T04:15:04.219Z,9.40
2023-01-15T04:17:35.595Z,9.40
2023-01-15T04:20:20.426Z,9.80
2023-01-15T04:22:49.561Z,9.80
2023-01-15T04:25:36.928Z,9.70
2023-01-15T04:28:16.935Z,9.70
2023-01-15T04:30:52.104Z,9.40
2023-01-15T04:33:31.564Z,9.60
2023-01-15T04:36:05.849Z,9.60
2023-01-15T04:38:40.634Z,9.40
2023-01-15T04:41:28.057Z,9.60
2023-01-15T04:44:08.776Z,9.80
2023-01-15T04:46:40.924Z,9.30
2023-01-15T04:49:18.762Z,9.80
2023-01-15T04:51:54.069Z,9.50
2023-01-15T04:54:29.762Z,10.50
2023-01-15T05:26:09.999Z,8.70
2023-01-15T05:28:41.266Z,8.60
2023-01-15T05:31:13.270Z,8.80
2023-01-15T05:33:42.289Z,9.00
2023-01-15T05:36:15.532Z,8.70
2023-01-15T05:38:46.943Z,8.40
2023-01-15T05:41:35.616Z,9.00
2023-01-15T05:44:11.428Z,9.30
2023-01-15T05:46:41.675Z,9.10
2023-01-15T05:49:11.471Z,9.40
2023-01-15T05:51:41.309Z,9.10
2023-01-15T05:54:13.422Z,9.20
2023-01-15T05:56:45.861Z,9.60
2023-01-15T05:59:17.991Z,9.20
2023-01-15T06:01:46.667Z,9.40
2023-01-15T06:04:15.806Z,9.50
2023-01-15T06:06:46.772Z,10.00
2023-01-15T06:09:15.858Z,9.40
2023-01-15T06:11:45.455Z,9.00
2023-01-15T06:14:14.164Z,9.10
2023-01-15T06:16:42.669Z,9.40
2023-01-15T06:19:14.622Z,9.60
2023-01-15T06:21:43.620Z,9.20
2023-01-15T06:24:17.361Z,9.10
2023-01-15T06:26:51.747Z,9.40
2023-01-15T06:29:33.053Z,9.30
2023-01-15T06:32:04.596Z,9.30
2023-01-15T06:34:46.740Z,9.20
2023-01-15T06:37:15.268Z,9.90
2023-01-15T06:39:46.475Z,9.60
2023-01-15T06:42:43.688Z,9.70
2023-01-15T06:45:33.634Z,9.10
2023-01-15T06:48:10.040Z,10.10
2023-01-15T06:50:39.958Z,9.10
2023-01-15T06:53:09.316Z,9.30
2023-01-15T06:55:42.560Z,8.90
2023-01-15T06:58:12.626Z,9.10
2023-01-15T07:00:57.855Z,9.20
2023-01-15T07:03:36.082Z,10.10
2023-01-15T07:06:21.165Z,9.70
2023-01-15T07:08:49.702Z,10.00
2023-01-15T07:11:18.327Z,9.60
2023-01-15T07:13:49.133Z,9.70
2023-01-15T07:16:28.901Z,9.80
2023-01-15T07:18:57.660Z,10.00
2023-01-15T07:21:26.199Z,10.30
2023-01-15T07:23:54.980Z,10.30
2023-01-15T07:26:23.437Z,10.30
2023-01-15T07:28:53.402Z,11.40
2023-01-15T07:31:21.810Z,10.50
2023-01-15T07:33:50.267Z,10.80
2023-01-15T07:36:18.874Z,10.90
2023-01-15T07:38:47.138Z,10.70
2023-01-15T07:41:32.905Z,9.90
2023-01-15T07:44:20.009Z,11.40
2023-01-15T07:47:05.939Z,11.40
2023-01-15T07:49:46.474Z,11.40
2023-01-15T07:52:15.315Z,10.90
2023-01-15T07:54:43.746Z,12.10
2023-01-15T07:57:13.623Z,12.10
2023-01-15T07:59:43.279Z,11.80
2023-01-15T08:02:12.171Z,12.20
2023-01-15T08:04:40.696Z,13.40
2023-01-15T08:07:09.434Z,12.50
2023-01-15T08:09:38.470Z,12.80
2023-01-15T08:12:24.770Z,12.10
2023-01-15T08:15:11.736Z,12.00
2023-01-15T08:17:41.108Z,12.60
2023-01-15T08:20:13.216Z,12.80
2023-01-15T08:22:41.789Z,12.80
2023-01-15T08:25:11.451Z,12.70
2023-01-15T08:27:40.746Z,12.60
2023-01-15T08:30:13.860Z,12.50
2023-01-15T08:32:42.271Z,14.30
2023-01-15T08:35:10.976Z,15.10
2023-01-15T08:37:39.419Z,13.60
2023-01-15T08:40:08.824Z,12.30
2023-01-15T08:42:37.469Z,12.70
2023-01-15T08:45:06.246Z,12.30
2023-01-15T08:47:37.191Z,12.30
2023-01-15T08:50:06.565Z,12.50
2023-01-15T08:52:46.112Z,13.10
2023-01-15T08:55:14.534Z,12.20
2023-01-15T08:57:44.530Z,11.80
2023-01-15T09:00:14.014Z,10.40
2023-01-15T09:02:43.649Z,10.20
2023-01-15T09:05:12.029Z,10.00
2023-01-15T09:07:40.595Z,10.20
2023-01-15T09:10:09.901Z,10.30
2023-01-15T09:12:38.487Z,9.90
2023-01-15T09:15:18.719Z,9.80
2023-01-15T09:17:48.843Z,10.30
2023-01-15T09:20:17.222Z,9.80
2023-01-15T09:22:49.435Z,9.50
2023-01-15T09:25:24.103Z,9.40
2023-01-15T09:27:58.325Z,9.80
2023-01-15T09:30:36.148Z,9.80
2023-01-15T09:33:12.363Z,9.50
2023-01-15T09:35:46.552Z,10.00
2023-01-15T09:38:18.995Z,10.00
2023-01-15T09:40:52.298Z,9.70
2023-01-15T09:43:29.531Z,9.40
2023-01-15T09:46:05.707Z,9.50
2023-01-15T09:48:53.061Z,9.60
2023-01-15T09:51:32.725Z,9.50
2023-01-15T09:54:21.732Z,9.30
2023-01-15T09:56:50.509Z,9.30
2023-01-15T09:59:23.779Z,9.10
2023-01-15T10:01:56.570Z,8.90
2023-01-15T10:04:35.421Z,8.90
2023-01-15T10:07:13.759Z,8.90
2023-01-15T10:09:43.513Z,8.80
2023-01-15T10:12:36.870Z,8.90
2023-01-15T10:15:38.419Z,9.30
2023-01-15T10:18:09.252Z,9.10
2023-01-15T10:20:53.365Z,9.00
2023-01-15T10:23:44.027Z,8.70
2023-01-15T10:26:28.283Z,8.80
2023-01-15T10:29:04.508Z,8.40
2023-01-15T10:32:05.097Z,8.60
2023-01-15T10:34:58.312Z,8.50
2023-01-15T10:37:34.858Z,8.60
2023-01-15T10:40:26.231Z,8.70
2023-01-15T10:43:02.579Z,8.80
2023-01-15T10:45:34.791Z,8.90
2023-01-15T10:48:07.594Z,8.80
2023-01-15T10:50:37.221Z,8.70
2023-01-15T10:53:14.763Z,8.80
2023-01-15T10:55:46.398Z,9.30
2023-01-15T10:58:23.034Z,9.40
2023-01-15T11:01:08.235Z,9.30
2023-01-15T11:03:38.824Z,9.30
2023-01-15T11:06:25.787Z,9.10
2023-01-15T11:09:11.149Z,9.10
2023-01-15T11:12:09.831Z,8.90
2023-01-15T11:15:00.615Z,8.90
2023-01-15T11:17:50.672Z,9.50
2023-01-15T11:20:55.279Z,9.60
2023-01-15T11:23:26.802Z,10.00
2023-01-15T11:26:25.178Z,9.70
2023-01-15T11:28:58.390Z,9.80
2023-01-15T11:31:50.659Z,10.00
2023-01-15T11:35:01.262Z,10.00
2023-01-15T11:37:37.766Z,10.30
2023-01-15T11:40:29.923Z,10.00
2023-01-15T11:43:20.137Z,10.10
2023-01-15T11:46:10.807Z,9.90
2023-01-15T11:49:07.331Z,10.10
2023-01-15T11:52:01.722Z,9.90
2023-01-15T11:54:46.429Z,9.80
2023-01-15T11:57:26.148Z,9.60
2023-01-15T12:00:05.010Z,9.60
2023-01-15T12:02:38.455Z,9.60
2023-01-15T12:05:15.367Z,9.70
2023-01-15T12:07:53.228Z,9.80
2023-01-15T12:10:53.309Z,9.80
2023-01-15T12:13:40.657Z,10.40
2023-01-15T12:16:17.964Z,10.50
2023-01-15T12:19:16.872Z,10.40
2023-01-15T12:22:04.729Z,13.20
2023-01-15T12:24:58.642Z,13.40
2023-01-15T12:27:49.821Z,14.50
2023-01-15T12:30:44.475Z,15.30
2023-01-15T12:33:28.295Z,15.10
2023-01-15T12:36:01.773Z,14.60
2023-01-15T12:38:45.408Z,13.50
2023-01-15T12:41:16.201Z,13.50
2023-01-15T12:44:08.250Z,13.90
2023-01-15T12:46:51.680Z,14.30
2023-01-15T12:49:37.217Z,15.00
2023-01-15T12:52:09.839Z,15.40
2023-01-15T12:54:54.800Z,15.80
2023-01-15T12:57:42.198Z,14.20
2023-01-15T13:00:17.982Z,13.90
2023-01-15T13:02:59.196Z,12.90
2023-01-15T13:05:46.462Z,13.50
2023-01-15T13:08:20.592Z,13.30
2023-01-15T13:10:51.345Z,13.20
2023-01-15T13:13:23.032Z,14.00
2023-01-15T13:16:05.940Z,14.40
2023-01-15T13:18:55.409Z,14.10
2023-01-15T13:21:38.376Z,14.20
2023-01-15T13:25:01.150Z,14.50
2023-01-15T13:27:49.339Z,14.00
2023-01-15T13:30:39.515Z,13.50
2023-01-15T13:33:34.508Z,13.90
2023-01-15T13:36:08.338Z,14.20
2023-01-15T13:38:43.342Z,14.30
2023-01-15T13:41:15.973Z,15.10
2023-01-15T13:43:45.139Z,15.00
2023-01-15T13:46:32.649Z,15.50
2023-01-15T13:49:10.380Z,14.90
2023-01-15T13:51:50.549Z,14.80
2023-01-15T13:54:28.645Z,15.00
2023-01-15T13:57:33.370Z,15.00
2023-01-15T14:00:19.392Z,14.50
2023-01-15T14:03:26.607Z,14.50
2023-01-15T14:06:11.902Z,15.00
2023-01-15T14:08:47.444Z,13.80
2023-01-15T14:12:14.741Z,13.70
2023-01-15T14:15:22.270Z,14.30
2023-01-15T14:18:21.570Z,14.30
2023-01-15T14:21:30.435Z,14.40
2023-01-15T14:24:19.747Z,14.90
2023-01-15T14:26:58.635Z,14.60
2023-01-15T14:30:11.135Z,15.00
2023-01-15T14:32:52.409Z,15.30
2023-01-15T14:35:23.315Z,14.60
2023-01-15T14:37:55.909Z,14.50
2023-01-15T14:40:27.135Z,14.70
2023-01-15T14:43:04.963Z,15.20
2023-01-15T14:45:36.319Z,14.70
2023-01-15T14:48:06.365Z,14.60
2023-01-15T14:50:39.392Z,14.10
2023-01-15T14:53:24.594Z,13.80
2023-01-15T14:55:57.614Z,12.80
2023-01-15T14:58:37.961Z,14.00
2023-01-15T15:01:16.679Z,13.40
2023-01-15T15:03:52.350Z,14.50
2023-01-15T15:06:22.258Z,13.60
2023-01-15T15:08:52.487Z,14.00
2023-01-15T15:11:47.855Z,14.40
2023-01-15T15:14:18.873Z,14.60
2023-01-15T15:16:53.866Z,14.10
2023-01-15T15:19:29.300Z,13.80
2023-01-15T15:22:01.458Z,14.00
2023-01-15T15:24:34.289Z,13.20
2023-01-15T15:27:16.467Z,12.80
2023-01-15T15:29:46.403Z,13.00
2023-01-15T15:32:18.332Z,13.70
2023-01-15T15:34:51.185Z,13.20
2023-01-15T15:37:21.722Z,13.10
2023-01-15T15:39:54.559Z,12.80
2023-01-15T15:42:44.689Z,13.30
2023-01-15T15:45:37.998Z,13.40
2023-01-15T15:48:32.661Z,13.70
2023-01-15T15:51:01.348Z,14.30
2023-01-15T15:53:29.699Z,14.10
2023-01-15T15:56:00.903Z,13.80
2023-01-15T15:58:33.555Z,14.10
2023-01-15T16:01:04.253Z,13.60
2023-01-15T16:03:34.621Z,14.40
2023-01-15T16:06:04.897Z,14.20
2023-01-15T16:08:34.611Z,14.50
2023-01-15T16:11:06.151Z,13.40
2023-01-15T16:13:37.560Z,12.90
2023-01-15T16:16:09.151Z,12.30
2023-01-15T16:18:41.116Z,12.60
2023-01-15T16:21:10.458Z,11.80
2023-01-15T16:23:40.151Z,11.60
2023-01-15T16:26:14.586Z,10.80
2023-01-15T16:28:50.185Z,10.90
2023-01-15T16:31:22.724Z,11.90
2023-01-15T16:33:56.294Z,11.40
2023-01-15T16:36:25.044Z,12.60
2023-01-15T16:38:54.264Z,12.70
2023-01-15T16:41:27.981Z,12.70
2023-01-15T16:43:57.860Z,12.90
2023-01-15T16:46:30.709Z,12.90
2023-01-15T16:49:21.150Z,12.10
2023-01-15T16:51:50.292Z,12.00
2023-01-15T16:54:47.236Z,12.40
2023-01-15T16:57:32.192Z,11.70
2023-01-15T17:00:03.233Z,11.20
2023-01-15T17:02:44.204Z,11.40
2023-01-15T17:05:18.514Z,11.00
2023-01-15T17:07:50.152Z,11.20
2023-01-15T17:10:31.439Z,12.80
2023-01-15T17:13:00.154Z,11.30
2023-01-15T17:15:46.302Z,10.90
2023-01-15T17:18:26.819Z,11.60
2023-01-15T17:20:55.910Z,13.50
2023-01-15T17:23:28.808Z,12.60
2023-01-15T17:25:58.087Z,12.60
2023-01-15T17:28:26.635Z,12.30
2023-01-15T17:31:00.005Z,11.60
2023-01-15T17:33:29.857Z,11.80
2023-01-15T17:36:01.172Z,11.70
2023-01-15T17:38:29.587Z,12.60
2023-01-15T17:41:00.848Z,12.60
2023-01-15T17:43:29.323Z,12.70
2023-01-15T17:45:59.969Z,12.70
2023-01-15T17:48:29.950Z,13.00
2023-01-15T17:51:03.851Z,12.70
2023-01-15T17:53:32.646Z,13.80
2023-01-15T17:56:24.070Z,13.50
2023-01-15T17:59:10.027Z,13.10
2023-01-15T18:02:00.858Z,12.40
2023-01-15T18:04:50.966Z,11.60
2023-01-15T18:07:23.152Z,12.30
2023-01-15T18:09:53.093Z,12.70
2023-01-15T18:12:21.539Z,13.40
2023-01-15T18:14:50.308Z,12.40
2023-01-15T18:17:18.785Z,12.80
2023-01-15T18:19:48.400Z,11.60
2023-01-15T18:22:17.239Z,10.60
2023-01-15T18:24:45.799Z,9.70
2023-01-15T18:27:14.340Z,10.20
2023-01-15T18:29:43.719Z,9.80
2023-01-15T18:32:12.396Z,10.30
2023-01-15T18:34:40.811Z,9.10
2023-01-15T18:37:13.204Z,8.90
2023-01-15T18:39:41.740Z,8.80
2023-01-15T18:42:29.317Z,9.20
2023-01-15T18:45:15.173Z,9.90
2023-01-15T18:47:43.859Z,10.00
2023-01-15T18:50:17.420Z,11.00
2023-01-15T18:52:49.935Z,10.30
2023-01-15T18:55:19.005Z,9.20
2023-01-15T18:57:47.202Z,9.00
2023-01-15T19:00:15.696Z,9.80
2023-01-15T19:02:45.110Z,11.10
2023-01-15T19:05:15.360Z,10.60
2023-01-15T19:07:44.301Z,9.40
2023-01-15T19:10:15.975Z,9.30
2023-01-15T19:12:45.106Z,9.10
2023-01-15T19:15:32.889Z,8.80
2023-01-15T19:18:18.916Z,8.00
2023-01-15T19:20:47.654Z,7.40
2023-01-15T19:23:16.004Z,7.00
2023-01-15T19:25:51.581Z,7.00
2023-01-15T19:28:21.973Z,6.70
2023-01-15T19:31:12.579Z,6.50
2023-01-15T19:33:40.966Z,6.70
2023-01-15T19:36:11.138Z,6.70
2023-01-15T19:38:40.534Z,6.70
2023-01-15T19:41:30.651Z,6.80
2023-01-15T19:44:16.494Z,6.80
2023-01-15T19:47:02.585Z,6.80
2023-01-15T19:49:53.162Z,6.90
2023-01-15T19:52:37.931Z,6.50
2023-01-15T19:55:08.702Z,6.60
2023-01-15T19:57:38.884Z,6.70
2023-01-15T20:00:09.309Z,6.50
2023-01-15T20:02:38.497Z,6.40
2023-01-15T20:05:07.848Z,6.50
2023-01-15T20:07:36.309Z,6.50
2023-01-15T20:10:05.491Z,6.40
2023-01-15T20:12:56.894Z,6.40
2023-01-15T20:15:26.949Z,6.40
2023-01-15T20:17:55.501Z,6.40
2023-01-15T20:20:24.465Z,6.30
2023-01-15T20:22:55.996Z,6.70
2023-01-15T20:25:24.711Z,6.50
2023-01-15T20:27:53.272Z,6.40
2023-01-15T20:30:23.308Z,6.30
2023-01-15T20:32:54.070Z,8.70
2023-01-15T20:35:24.665Z,8.30
2023-01-15T20:37:53.491Z,9.60
2023-01-15T20:40:23.069Z,8.10
2023-01-15T20:43:09.659Z,7.90
2023-01-15T20:45:38.568Z,7.50
2023-01-15T20:48:26.023Z,7.00
2023-01-15T20:51:03.377Z,6.70
2023-01-15T20:53:34.547Z,6.60
2023-01-15T20:56:03.582Z,6.70
2023-01-15T20:58:32.080Z,6.50
2023-01-15T21:01:04.480Z,6.40
2023-01-15T21:03:34.187Z,6.50
2023-01-15T21:06:04.752Z,6.50
2023-01-15T21:08:33.777Z,6.20
2023-01-15T21:11:02.183Z,6.20
2023-01-15T21:13:31.220Z,5.90
2023-01-15T21:16:01.550Z,6.20
2023-01-15T21:18:31.234Z,6.00
2023-01-15T21:21:01.108Z,5.90
2023-01-15T21:23:29.560Z,5.90
2023-01-15T21:26:01.285Z,5.80
2023-01-15T21:28:29.819Z,5.70
2023-01-15T21:30:58.489Z,5.70
2023-01-15T21:33:27.308Z,6.20
2023-01-15T21:35:56.003Z,6.00
2023-01-15T21:38:25.751Z,6.00
2023-01-15T21:40:54.218Z,5.80
2023-01-15T21:43:40.098Z,5.90
2023-01-15T21:46:08.860Z,5.80
2023-01-15T21:48:37.368Z,5.80
2023-01-15T21:51:06.700Z,5.80
2023-01-15T21:53:36.334Z,5.70
2023-01-15T21:56:05.062Z,6.00
2023-01-15T21:58:37.561Z,6.00
2023-01-15T22:01:10.346Z,5.70
2023-01-15T22:03:39.286Z,5.90
2023-01-15T22:06:09.883Z,5.70
2023-01-15T22:08:39.542Z,5.60
2023-01-15T22:11:10.752Z,5.60
2023-01-15T22:13:40.918Z,5.50
2023-01-15T22:16:09.737Z,5.40
2023-01-15T22:18:38.024Z,5.70
2023-01-15T22:21:08.630Z,5.60
2023-01-15T22:23:37.115Z,5.40
2023-01-15T22:26:06.893Z,5.40
2023-01-15T22:28:35.250Z,5.40
2023-01-15T22:31:07.181Z,5.40
2023-01-15T22:33:35.844Z,5.40
2023-01-15T22:36:04.591Z,6.10
2023-01-15T22:38:33.137Z,6.70
2023-01-15T22:41:01.835Z,7.30
2023-01-15T22:43:32.632Z,6.50
2023-01-15T22:46:10.155Z,6.40
2023-01-15T22:48:38.913Z,6.30
2023-01-15T22:51:07.742Z,6.70
2023-01-15T22:53:37.153Z,6.50
2023-01-15T22:56:06.171Z,6.50
2023-01-15T22:58:36.309Z,6.60
2023-01-15T23:01:05.576Z,6.80
2023-01-15T23:03:36.007Z,6.80
2023-01-15T23:06:05.781Z,6.40
2023-01-15T23:08:35.461Z,6.90
2023-01-15T23:11:04.529Z,7.10
2023-01-15T23:13:33.404Z,7.20
2023-01-15T23:16:03.253Z,7.40
2023-01-15T23:18:32.613Z,7.30
2023-01-15T23:21:04.468Z,7.00
2023-01-15T23:23:33.764Z,6.70
2023-01-15T23:26:02.939Z,6.70
2023-01-15T23:28:31.565Z,6.40
2023-01-15T23:31:00.318Z,6.50
2023-01-15T23:33:29.900Z,6.30
2023-01-15T23:35:59.274Z,6.40
2023-01-15T23:38:28.308Z,6.50
2023-01-15T23:40:57.335Z,6.50
2023-01-15T23:43:43.118Z,6.70
2023-01-15T23:46:35.244Z,6.90
2023-01-15T23:49:08.591Z,6.90
2023-01-15T23:51:38.326Z,7.00
2023-01-15T23:54:08.643Z,6.60
2023-01-15T23:56:37.117Z,6.70
2023-01-15T23:59:05.531Z,6.70
